sensor_id;sensor_type;location;lat;lon;timestamp;pressure;altitude;pressure_sealevel;temperature;humidity
43071;BME280;36278;47.952;21.714;2024-03-08T12:59:04;100697.34;;;13.23;55.30
43071;BME280;36278;47.952;21.714;2024-03-08T13:01:31;100695.63;;;13.44;54.35
43071;BME280;36278;47.952;21.714;2024-03-08T13:04:03;100692.88;;;13.01;55.91
43071;BME280;36278;47.952;21.714;2024-03-08T13:06:29;100689.84;;;12.95;56.52
43071;BME280;36278;47.952;21.714;2024-03-08T13:08:57;100704.00;;;12.50;57.19
43071;BME280;36278;47.952;21.714;2024-03-08T13:11:24;100691.53;;;11.93;58.36
43071;BME280;36278;47.952;21.714;2024-03-08T13:13:51;100688.31;;;11.77;59.48
43071;BME280;36278;47.952;21.714;2024-03-08T13:16:20;100692.53;;;11.79;59.60
43071;BME280;36278;47.952;21.714;2024-03-08T13:18:46;100688.94;;;11.33;61.99
43071;BME280;36278;47.952;21.714;2024-03-08T13:21:14;100694.25;;;10.96;62.04
43071;BME280;36278;47.952;21.714;2024-03-08T13:23:41;100696.66;;;10.99;62.06
43071;BME280;36278;47.952;21.714;2024-03-08T13:26:11;100690.75;;;10.95;62.43
43071;BME280;36278;47.952;21.714;2024-03-08T13:28:47;100696.34;;;10.91;62.40
43071;BME280;36278;47.952;21.714;2024-03-08T13:31:21;100694.81;;;10.76;63.73
43071;BME280;36278;47.952;21.714;2024-03-08T13:33:46;100688.44;;;10.65;63.41
43071;BME280;36278;47.952;21.714;2024-03-08T13:36:12;100684.53;;;10.71;63.73
43071;BME280;36278;47.952;21.714;2024-03-08T13:38:45;100689.75;;;10.60;64.54
43071;BME280;36278;47.952;21.714;2024-03-08T13:41:11;100681.47;;;10.64;65.52
43071;BME280;36278;47.952;21.714;2024-03-08T13:43:43;100685.78;;;10.78;64.10
43071;BME280;36278;47.952;21.714;2024-03-08T13:46:10;100691.56;;;10.59;65.31
43071;BME280;36278;47.952;21.714;2024-03-08T13:48:37;100676.28;;;10.37;66.15
43071;BME280;36278;47.952;21.714;2024-03-08T13:51:04;100678.28;;;10.47;65.41
43071;BME280;36278;47.952;21.714;2024-03-08T13:53:31;100689.75;;;10.34;65.96
43071;BME280;36278;47.952;21.714;2024-03-08T13:55:59;100684.75;;;10.30;65.85
43071;BME280;36278;47.952;21.714;2024-03-08T13:58:26;100683.91;;;10.42;64.81
43071;BME280;36278;47.952;21.714;2024-03-08T14:00:56;100686.53;;;10.42;65.13
43071;BME280;36278;47.952;21.714;2024-03-08T14:03:23;100683.69;;;10.45;64.40
43071;BME280;36278;47.952;21.714;2024-03-08T14:05:50;100683.81;;;10.31;64.90
43071;BME280;36278;47.952;21.714;2024-03-08T14:08:17;100675.34;;;10.38;65.92
43071;BME280;36278;47.952;21.714;2024-03-08T14:10:43;100686.00;;;10.24;66.29
43071;BME280;36278;47.952;21.714;2024-03-08T14:13:12;100684.69;;;10.04;65.96
43071;BME280;36278;47.952;21.714;2024-03-08T14:15:41;100681.88;;;10.33;65.45
43071;BME280;36278;47.952;21.714;2024-03-08T14:18:11;100688.19;;;10.05;65.65
43071;BME280;36278;47.952;21.714;2024-03-08T14:20:42;100680.22;;;9.92;65.56
43071;BME280;36278;47.952;21.714;2024-03-08T14:23:13;100675.88;;;9.78;67.36
43071;BME280;36278;47.952;21.714;2024-03-08T14:25:51;100687.69;;;9.73;67.13
43071;BME280;36278;47.952;21.714;2024-03-08T14:28:21;100683.19;;;9.61;68.66
43071;BME280;36278;47.952;21.714;2024-03-08T14:30:53;100663.00;;;9.60;67.23
43071;BME280;36278;47.952;21.714;2024-03-08T14:33:22;100682.53;;;9.71;67.48
43071;BME280;36278;47.952;21.714;2024-03-08T14:35:51;100680.91;;;9.69;67.31
43071;BME280;36278;47.952;21.714;2024-03-08T14:38:19;100688.41;;;9.62;67.34
43071;BME280;36278;47.952;21.714;2024-03-08T14:40:54;100682.09;;;9.38;68.10
43071;BME280;36278;47.952;21.714;2024-03-08T14:43:29;100685.94;;;9.46;67.85
43071;BME280;36278;47.952;21.714;2024-03-08T14:45:56;100680.91;;;9.69;67.14
43071;BME280;36278;47.952;21.714;2024-03-08T14:52:12;100679.66;;;9.74;67.85
43071;BME280;36278;47.952;21.714;2024-03-08T14:55:08;100685.16;;;9.71;67.36
43071;BME280;36278;47.952;21.714;2024-03-08T14:57:43;100680.50;;;9.62;68.24
43071;BME280;36278;47.952;21.714;2024-03-08T15:00:19;100686.91;;;9.31;68.88
43071;BME280;36278;47.952;21.714;2024-03-08T15:06:15;100681.56;;;9.18;70.73
